Bartlesville, OK (74006)

07:41 AM CDT del 24 Ottobre 2014 (GMT -0500)
East Drive | Change Station
CLOSE
Current Station
Stazione meteo personale
Location: Bartlesville, OK
Altitudine: 752 ft
Stazioni meteo nelle vicinanze

Alt. 752 ft 36.73 °N, 95.91 °W | Updated 4 minutes ago

Nebbia
Nebbia
54.8 °F
Sembra 54.8 °F
N
0.0
Vento Variabile Vento da Sud

Oggi
Massima -- | Minima -- °F
--% Possibilità di precip.
Ieri
Massima -- | Minima -- °F
Precip. -- in
7:39 AM 6:35 PM
Luna nuova, 0% visible
Pressione 30.11 in
Visibilità 1.2 miglia
Nuvole Sereno
Punto di rugiada 53 °F
Umidità 94%
Piovosità 0.00 in
Spessore del manto nevoso Non disponibile.
Raggi UV 0 fuori da 12
Polline 4.00 fuori da 12
Qualità dell'aria Non disponibile.
Flu Activity No Activity
SPECI KBVO 241225Z AUTO 00000KT 1 1/4SM BR CLR 10/10 A3011 RMK AO2 T01000100

More Conditions Fewer Conditions

Pressione 30.11 in
Visibilità 1.2 miglia
Nuvole Sereno
Punto di rugiada 53 °F
Umidità 94%
Piovosità 0.00 in
Spessore del manto nevoso Non disponibile.
Raggi UV 0 fuori da 12
Polline 4.00 fuori da 12
Qualità dell'aria Non disponibile.
Flu Activity No Activity
SPECI KBVO 241225Z AUTO 00000KT 1 1/4SM BR CLR 10/10 A3011 RMK AO2 T01000100

More Conditions Fewer Conditions

10-Day Weather Forecast

Almanac

Astronomia

Oct. 24, 2014 Alba Tramonto
Ora attuale 07:39 CDT 18:35 CDT
Crepuscolo civile 07:13 CDT 19:02 CDT
Crepuscolo nautico 06:42 CDT 19:32 CDT
Crepuscolo astronomico 06:12 CDT 20:02 CDT
Luna 08:18 CDT 19:17 CDT
Estensione della luce visibile 11h 48m
Lunghezza del giorno
10h 56m
Tomorrow will be 2m 10s shorter.
Luna nuova, 0% of the Moon is Illuminated
Oggi
Luna nuova
Ott 30
Primo quarto
Nov 6
Luna piena
Nov 14
Ultimo quarto
Nov 22
Nuovo

Gli estremi di oggi

State Highs State Lows

Community

WunderPhotos

Upload Photos

1,764,544 foto caricate!

Nearby

Profondità neve

Stazione Profondità Altitudine
Non sono state evidenziate nuove nevicate

Attività sismica

Città  Distanza Mag. Data & Ora
Medford, Oklahoma 99 miglia 3.0 02:06 CDT
2014-10-23
Pawnee, Oklahoma 65 miglia 2.7 01:06 CDT
2014-10-23
Luther, Oklahoma 105 miglia 2.5 22:36 CDT
2014-10-22
Crescent, Oklahoma 103 miglia 2.7 21:58 CDT
2014-10-22
Minimo Magnitudo Mostrato è 2.5.

Temperature delle acque costiere

Località Temperatura
Nessun dato dalle stazioni

Stazioni meteo nelle vicinanze